sensor_id;sensor_type;location;lat;lon;timestamp;pressure;altitude;pressure_sealevel;temperature;humidity
75146;BME280;63641;46.526;24.612;2022-12-07T00:01:27;97084.88;;;5.99;76.27
75146;BME280;63641;46.526;24.612;2022-12-07T00:03:57;97084.34;;;5.97;76.19
75146;BME280;63641;46.526;24.612;2022-12-07T00:06:27;97083.78;;;5.95;76.29
75146;BME280;63641;46.526;24.612;2022-12-07T00:08:54;97083.78;;;5.95;76.30
75146;BME280;63641;46.526;24.612;2022-12-07T00:11:22;97079.50;;;5.94;76.40
75146;BME280;63641;46.526;24.612;2022-12-07T00:13:56;97083.53;;;5.97;76.30
75146;BME280;63641;46.526;24.612;2022-12-07T00:16:26;97077.03;;;5.93;76.32
75146;BME280;63641;46.526;24.612;2022-12-07T00:18:53;97089.09;;;5.90;76.44
75146;BME280;63641;46.526;24.612;2022-12-07T00:21:34;97086.13;;;5.87;76.51
75146;BME280;63641;46.526;24.612;2022-12-07T00:24:03;97092.28;;;5.87;76.54
75146;BME280;63641;46.526;24.612;2022-12-07T00:26:36;97086.66;;;5.89;76.49
75146;BME280;63641;46.526;24.612;2022-12-07T00:29:13;97097.16;;;5.90;76.49
75146;BME280;63641;46.526;24.612;2022-12-07T00:31:41;97086.97;;;5.92;76.47
75146;BME280;63641;46.526;24.612;2022-12-07T00:34:16;97094.00;;;5.93;76.32
75146;BME280;63641;46.526;24.612;2022-12-07T00:36:43;97088.63;;;5.93;76.37
75146;BME280;63641;46.526;24.612;2022-12-07T00:39:10;97087.53;;;5.94;76.44
75146;BME280;63641;46.526;24.612;2022-12-07T00:41:37;97078.91;;;5.92;76.34
75146;BME280;63641;46.526;24.612;2022-12-07T00:44:04;97082.16;;;5.94;76.46
75146;BME280;63641;46.526;24.612;2022-12-07T00:46:31;97089.97;;;5.96;76.44
75146;BME280;63641;46.526;24.612;2022-12-07T00:48:58;97094.00;;;5.93;76.27
75146;BME280;63641;46.526;24.612;2022-12-07T00:51:25;97077.25;;;5.86;76.38
75146;BME280;63641;46.526;24.612;2022-12-07T00:53:52;97084.81;;;5.89;76.47
75146;BME280;63641;46.526;24.612;2022-12-07T00:56:21;97083.44;;;5.87;76.44
75146;BME280;63641;46.526;24.612;2022-12-07T00:58:53;97078.28;;;5.85;76.62
75146;BME280;63641;46.526;24.612;2022-12-07T01:01:21;97084.50;;;5.86;76.59
75146;BME280;63641;46.526;24.612;2022-12-07T01:03:48;97079.13;;;5.86;76.49
75146;BME280;63641;46.526;24.612;2022-12-07T01:06:16;97082.06;;;5.84;76.52
75146;BME280;63641;46.526;24.612;2022-12-07T01:08:44;97086.91;;;5.87;76.41
75146;BME280;63641;46.526;24.612;2022-12-07T01:11:17;97093.38;;;5.86;76.61
75146;BME280;63641;46.526;24.612;2022-12-07T01:13:44;97079.94;;;5.86;76.40
75146;BME280;63641;46.526;24.612;2022-12-07T01:16:14;97080.97;;;5.85;76.55
75146;BME280;63641;46.526;24.612;2022-12-07T01:18:41;97079.94;;;5.86;76.76
75146;BME280;63641;46.526;24.612;2022-12-07T01:21:20;97078.06;;;5.87;76.96
75146;BME280;63641;46.526;24.612;2022-12-07T01:23:48;97079.94;;;5.86;76.53
75146;BME280;63641;46.526;24.612;2022-12-07T01:26:18;97083.16;;;5.88;76.32
75146;BME280;63641;46.526;24.612;2022-12-07T01:28:45;97081.28;;;5.89;76.40
75146;BME280;63641;46.526;24.612;2022-12-07T01:31:14;97086.41;;;5.90;76.46
75146;BME280;63641;46.526;24.612;2022-12-07T01:33:46;97078.34;;;5.90;76.65
75146;BME280;63641;46.526;24.612;2022-12-07T01:36:19;97080.56;;;5.93;76.55
75146;BME280;63641;46.526;24.612;2022-12-07T01:38:47;97077.03;;;5.93;76.49
75146;BME280;63641;46.526;24.612;2022-12-07T01:41:15;97077.88;;;5.93;76.50
75146;BME280;63641;46.526;24.612;2022-12-07T01:44:11;97078.41;;;5.95;76.47
75146;BME280;63641;46.526;24.612;2022-12-07T01:46:39;97070.13;;;5.97;76.43
75146;BME280;63641;46.526;24.612;2022-12-07T01:49:09;97071.97;;;5.96;76.58
75146;BME280;63641;46.526;24.612;2022-12-07T01:51:37;97071.44;;;5.94;76.65
75146;BME280;63641;46.526;24.612;2022-12-07T01:54:05;97062.28;;;5.95;76.55
75146;BME280;63641;46.526;24.612;2022-12-07T01:56:32;97063.91;;;5.96;76.50
75146;BME280;63641;46.526;24.612;2022-12-07T01:59:00;97069.03;;;5.98;76.54
75146;BME280;63641;46.526;24.612;2022-12-07T02:01:27;97067.66;;;5.95;76.73
75146;BME280;63641;46.526;24.612;2022-12-07T02:03:53;97074.91;;;5.95;76.49
75146;BME280;63641;46.526;24.612;2022-12-07T02:06:22;97081.09;;;5.95;76.83
75146;BME280;63641;46.526;24.612;2022-12-07T02:08:51;97075.19;;;5.93;76.81
75146;BME280;63641;46.526;24.612;2022-12-07T02:11:18;97071.09;;;5.91;76.72
75146;BME280;63641;46.526;24.612;2022-12-07T02:13:46;97070.81;;;5.87;76.76
75146;BME280;63641;46.526;24.612;2022-12-07T02:21:58;97076.31;;;5.70;77.28
75146;BME280;63641;46.526;24.612;2022-12-07T02:24:37;97068.25;;;5.70;77.20
75146;BME280;63641;46.526;24.612;2022-12-07T02:40:44;97076.09;;;5.77;76.48
75146;BME280;63641;46.526;24.612;2022-12-07T02:46:17;97079.25;;;5.69;76.51
75146;BME280;63641;46.526;24.612;2022-12-07T02:48:45;97073.59;;;5.65;76.34
75146;BME280;63641;46.526;24.612;2022-12-07T02:51:12;97077.28;;;5.59;76.53
75146;BME280;63641;46.526;24.612;2022-12-07T02:53:41;97076.44;;;5.53;76.39
75146;BME280;63641;46.526;24.612;2022-12-07T03:12:41;97078.31;;;5.26;75.86
75146;BME280;63641;46.526;24.612;2022-12-07T03:15:18;97080.44;;;5.24;75.87
75146;BME280;63641;46.526;24.612;2022-12-07T03:17:49;97075.00;;;5.19;75.51
75146;BME280;63641;46.526;24.612;2022-12-07T03:20:19;97073.38;;;5.13;75.60
75146;BME280;63641;46.526;24.612;2022-12-07T03:22:49;97079.25;;;5.15;75.67
75146;BME280;63641;46.526;24.612;2022-12-07T03:25:18;97077.66;;;5.14;75.36
75146;BME280;63641;46.526;24.612;2022-12-07T03:27:49;97077.66;;;5.14;75.25
75146;BME280;63641;46.526;24.612;2022-12-07T03:30:20;97076.84;;;5.13;75.15
75146;BME280;63641;46.526;24.612;2022-12-07T03:35:35;97072.88;;;5.16;75.12
75146;BME280;63641;46.526;24.612;2022-12-07T03:38:18;97072.88;;;5.16;74.93
75146;BME280;63641;46.526;24.612;2022-12-07T03:43:22;97078.16;;;5.11;74.92
75146;BME280;63641;46.526;24.612;2022-12-07T03:48:59;97084.63;;;5.15;74.79
75146;BME280;63641;46.526;24.612;2022-12-07T03:51:54;97076.88;;;5.18;74.54
75146;BME280;63641;46.526;24.612;2022-12-07T03:54:36;97069.16;;;5.22;74.24
75146;BME280;63641;46.526;24.612;2022-12-07T03:57:06;97069.97;;;5.22;74.08
75146;BME280;63641;46.526;24.612;2022-12-07T03:59:35;97070.25;;;5.26;74.17
75146;BME280;63641;46.526;24.612;2022-12-07T04:02:06;97073.50;;;5.28;74.17
75146;BME280;63641;46.526;24.612;2022-12-07T04:04:34;97070.84;;;5.28;74.15
75146;BME280;63641;46.526;24.612;2022-12-07T04:07:01;97077.81;;;5.29;74.22
75146;BME280;63641;46.526;24.612;2022-12-07T04:09:27;97071.38;;;5.30;74.37
75146;BME280;63641;46.526;24.612;2022-12-07T04:11:54;97066.56;;;5.32;74.53
75146;BME280;63641;46.526;24.612;2022-12-07T04:14:21;97061.78;;;5.34;74.36
75146;BME280;63641;46.526;24.612;2022-12-07T04:16:52;97059.34;;;5.32;74.36
75146;BME280;63641;46.526;24.612;2022-12-07T04:19:22;97063.91;;;5.32;74.43
75146;BME280;63641;46.526;24.612;2022-12-07T04:21:49;97068.16;;;5.28;74.66
75146;BME280;63641;46.526;24.612;2022-12-07T04:24:16;97070.84;;;5.28;74.70
75146;BME280;63641;46.526;24.612;2022-12-07T04:26:43;97065.47;;;5.28;74.48
75146;BME280;63641;46.526;24.612;2022-12-07T04:29:10;97073.50;;;5.28;74.72
75146;BME280;63641;46.526;24.612;2022-12-07T04:31:37;97077.81;;;5.29;74.58
75146;BME280;63641;46.526;24.612;2022-12-07T04:34:05;97075.13;;;5.29;74.45
75146;BME280;63641;46.526;24.612;2022-12-07T04:36:32;97078.06;;;5.27;74.61
75146;BME280;63641;46.526;24.612;2022-12-07T04:38:59;97075.88;;;5.24;74.65
75146;BME280;63641;46.526;24.612;2022-12-07T04:41:26;97071.28;;;5.20;74.70
75146;BME280;63641;46.526;24.612;2022-12-07T04:43:58;97068.31;;;5.16;74.70
75146;BME280;63641;46.526;24.612;2022-12-07T04:46:26;97068.53;;;5.15;74.95
75146;BME280;63641;46.526;24.612;2022-12-07T04:48:54;97070.19;;;5.16;74.87
75146;BME280;63641;46.526;24.612;2022-12-07T04:51:23;97066.44;;;5.17;74.72
75146;BME280;63641;46.526;24.612;2022-12-07T04:53:50;97061.59;;;5.19;74.71
75146;BME280;63641;46.526;24.612;2022-12-07T04:56:18;97070.72;;;5.18;74.74
75146;BME280;63641;46.526;24.612;2022-12-07T04:58:46;97068.84;;;5.18;74.70
75146;BME280;63641;46.526;24.612;2022-12-07T05:01:14;97074.47;;;5.17;74.52
75146;BME280;63641;46.526;24.612;2022-12-07T05:03:41;97070.19;;;5.16;74.86
75146;BME280;63641;46.526;24.612;2022-12-07T05:06:09;97070.41;;;5.14;74.67
75146;BME280;63641;46.526;24.612;2022-12-07T05:08:39;97070.91;;;5.11;74.56
75146;BME280;63641;46.526;24.612;2022-12-07T05:11:07;97074.94;;;5.08;74.76
75146;BME280;63641;46.526;24.612;2022-12-07T05:13:35;97078.34;;;5.04;74.82
75146;BME280;63641;46.526;24.612;2022-12-07T05:16:02;97074.31;;;5.01;74.86
75146;BME280;63641;46.526;24.612;2022-12-07T05:18:29;97079.69;;;5.01;74.82
75146;BME280;63641;46.526;24.612;2022-12-07T05:20:56;97080.72;;;5.00;74.89
75146;BME280;63641;46.526;24.612;2022-12-07T05:23:23;97076.44;;;4.99;74.89
75146;BME280;63641;46.526;24.612;2022-12-07T05:25:49;97080.19;;;4.98;74.87
75146;BME280;63641;46.526;24.612;2022-12-07T05:28:16;97081.25;;;4.97;74.54
75146;BME280;63641;46.526;24.612;2022-12-07T05:30:43;97083.97;;;5.02;74.65
75146;BME280;63641;46.526;24.612;2022-12-07T05:33:10;97085.84;;;5.02;74.72
75146;BME280;63641;46.526;24.612;2022-12-07T05:35:36;97085.53;;;4.98;74.83
75146;BME280;63641;46.526;24.612;2022-12-07T05:38:04;97091.91;;;4.92;74.97
75146;BME280;63641;46.526;24.612;2022-12-07T05:40:31;97098.56;;;4.90;75.01
75146;BME280;63641;46.526;24.612;2022-12-07T05:42:57;97095.06;;;4.89;75.01
75146;BME280;63641;46.526;24.612;2022-12-07T05:45:30;97100.19;;;4.91;75.28
75146;BME280;63641;46.526;24.612;2022-12-07T05:47:57;97101.00;;;4.91;74.95
75146;BME280;63641;46.526;24.612;2022-12-07T05:50:24;97104.53;;;4.97;75.00
75146;BME280;63641;46.526;24.612;2022-12-07T05:52:50;97101.63;;;4.98;74.96
75146;BME280;63641;46.526;24.612;2022-12-07T05:55:17;97105.13;;;4.99;75.14
75146;BME280;63641;46.526;24.612;2022-12-07T05:57:44;97102.69;;;4.97;75.06
75146;BME280;63641;46.526;24.612;2022-12-07T06:00:32;97109.41;;;5.00;75.13
75146;BME280;63641;46.526;24.612;2022-12-07T06:02:58;97113.97;;;4.99;75.16
75146;BME280;63641;46.526;24.612;2022-12-07T06:05:25;97107.53;;;5.00;75.05
75146;BME280;63641;46.526;24.612;2022-12-07T06:07:52;97098.38;;;4.96;75.37
75146;BME280;63641;46.526;24.612;2022-12-07T06:10:19;97105.44;;;5.02;75.27
75146;BME280;63641;46.526;24.612;2022-12-07T06:12:46;97110.53;;;5.04;75.21
75146;BME280;63641;46.526;24.612;2022-12-07T06:15:12;97109.72;;;5.03;75.32
75146;BME280;63641;46.526;24.612;2022-12-07T06:17:40;97112.41;;;5.03;75.28
75146;BME280;63641;46.526;24.612;2022-12-07T06:20:07;97110.22;;;5.00;75.19
75146;BME280;63641;46.526;24.612;2022-12-07T06:22:34;97106.69;;;4.95;75.00
75146;BME280;63641;46.526;24.612;2022-12-07T06:25:01;97124.38;;;4.96;74.92
75146;BME280;63641;46.526;24.612;2022-12-07T06:27:34;97123.53;;;4.90;75.03
75146;BME280;63641;46.526;24.612;2022-12-07T06:30:02;97119.16;;;4.84;75.01
75146;BME280;63641;46.526;24.612;2022-12-07T06:32:33;97123.13;;;4.81;75.13
75146;BME280;63641;46.526;24.612;2022-12-07T06:35:00;97131.13;;;4.76;74.85
75146;BME280;63641;46.526;24.612;2022-12-07T06:37:27;97123.50;;;4.68;74.88
75146;BME280;63641;46.526;24.612;2022-12-07T06:39:54;97124.22;;;4.64;74.94
75146;BME280;63641;46.526;24.612;2022-12-07T06:42:20;97123.69;;;4.62;74.71
75146;BME280;63641;46.526;24.612;2022-12-07T06:44:47;97122.31;;;4.59;74.88
75146;BME280;63641;46.526;24.612;2022-12-07T06:47:14;97137.56;;;4.58;74.63
75146;BME280;63641;46.526;24.612;2022-12-07T06:50:01;97137.00;;;4.56;74.36
75146;BME280;63641;46.526;24.612;2022-12-07T06:52:28;97137.53;;;4.53;74.52
75146;BME280;63641;46.526;24.612;2022-12-07T06:54:55;97139.69;;;4.56;74.15
75146;BME280;63641;46.526;24.612;2022-12-07T06:57:21;97134.91;;;4.58;74.10
75146;BME280;63641;46.526;24.612;2022-12-07T06:59:49;97141.88;;;4.59;74.19
75146;BME280;63641;46.526;24.612;2022-12-07T07:02:16;97136.03;;;4.63;74.13
75146;BME280;63641;46.526;24.612;2022-12-07T07:04:42;97147.88;;;4.67;73.97
75146;BME280;63641;46.526;24.612;2022-12-07T07:07:09;97134.72;;;4.65;73.85
75146;BME280;63641;46.526;24.612;2022-12-07T07:09:36;97139.28;;;4.65;73.75
75146;BME280;63641;46.526;24.612;2022-12-07T07:12:03;97136.03;;;4.63;73.72
75146;BME280;63641;46.526;24.612;2022-12-07T07:14:30;97139.28;;;4.65;73.81
75146;BME280;63641;46.526;24.612;2022-12-07T07:16:56;97136.34;;;4.66;73.41
75146;BME280;63641;46.526;24.612;2022-12-07T07:19:23;97138.16;;;4.60;73.15
75146;BME280;63641;46.526;24.612;2022-12-07T07:21:50;97142.69;;;4.60;73.17
75146;BME280;63641;46.526;24.612;2022-12-07T07:24:16;97139.94;;;4.55;72.99
75146;BME280;63641;46.526;24.612;2022-12-07T07:26:43;97136.72;;;4.53;72.92
75146;BME280;63641;46.526;24.612;2022-12-07T07:29:10;97140.69;;;4.50;72.80
75146;BME280;63641;46.526;24.612;2022-12-07T07:31:37;97144.44;;;4.49;73.06
75146;BME280;63641;46.526;24.612;2022-12-07T07:34:04;97137.44;;;4.48;72.91
75146;BME280;63641;46.526;24.612;2022-12-07T07:36:32;97141.19;;;4.47;72.69
75146;BME280;63641;46.526;24.612;2022-12-07T07:38:58;97141.97;;;4.48;72.73
75146;BME280;63641;46.526;24.612;2022-12-07T07:41:25;97144.91;;;4.46;72.93
75146;BME280;63641;46.526;24.612;2022-12-07T07:43:52;97148.31;;;4.42;72.61
75146;BME280;63641;46.526;24.612;2022-12-07T07:46:19;97148.56;;;4.40;72.78
75146;BME280;63641;46.526;24.612;2022-12-07T07:48:46;97143.69;;;4.37;72.67
75146;BME280;63641;46.526;24.612;2022-12-07T07:51:13;97136.72;;;4.36;72.52
75146;BME280;63641;46.526;24.612;2022-12-07T07:53:40;97138.84;;;4.34;72.73
75146;BME280;63641;46.526;24.612;2022-12-07T07:56:07;97129.44;;;4.31;72.59
75146;BME280;63641;46.526;24.612;2022-12-07T07:58:34;97137.69;;;4.30;72.34
75146;BME280;63641;46.526;24.612;2022-12-07T08:01:05;97145.75;;;4.30;72.46
75146;BME280;63641;46.526;24.612;2022-12-07T08:03:32;97142.25;;;4.29;72.13
75146;BME280;63641;46.526;24.612;2022-12-07T08:05:59;97140.06;;;4.26;72.25
75146;BME280;63641;46.526;24.612;2022-12-07T08:08:26;97145.25;;;4.33;72.02
75146;BME280;63641;46.526;24.612;2022-12-07T08:10:52;97143.69;;;4.37;71.74
75146;BME280;63641;46.526;24.612;2022-12-07T08:13:19;97144.03;;;4.41;71.65
75146;BME280;63641;46.526;24.612;2022-12-07T08:15:52;97147.34;;;4.48;71.48
75146;BME280;63641;46.526;24.612;2022-12-07T08:18:19;97153.59;;;4.53;71.54
75146;BME280;63641;46.526;24.612;2022-12-07T08:20:46;97163.00;;;4.56;71.39
75146;BME280;63641;46.526;24.612;2022-12-07T08:23:13;97159.59;;;4.60;71.17
75146;BME280;63641;46.526;24.612;2022-12-07T08:25:40;97168.19;;;4.63;71.11
75146;BME280;63641;46.526;24.612;2022-12-07T08:28:06;97163.13;;;4.66;71.02
75146;BME280;63641;46.526;24.612;2022-12-07T08:30:33;97156.72;;;4.67;70.76
75146;BME280;63641;46.526;24.612;2022-12-07T08:33:00;97163.13;;;4.66;70.52
75146;BME280;63641;46.526;24.612;2022-12-07T08:35:27;97164.44;;;4.64;70.65
75146;BME280;63641;46.526;24.612;2022-12-07T08:37:53;97167.69;;;4.66;70.80
75146;BME280;63641;46.526;24.612;2022-12-07T08:40:20;97166.41;;;4.68;70.55
75146;BME280;63641;46.526;24.612;2022-12-07T08:42:51;97154.34;;;4.71;70.36
75146;BME280;63641;46.526;24.612;2022-12-07T08:45:18;97162.00;;;4.79;70.33
75146;BME280;63641;46.526;24.612;2022-12-07T08:47:56;97168.22;;;4.84;70.08
75146;BME280;63641;46.526;24.612;2022-12-07T08:50:25;97170.13;;;4.89;70.23
75146;BME280;63641;46.526;24.612;2022-12-07T08:52:54;97160.31;;;4.95;69.88
75146;BME280;63641;46.526;24.612;2022-12-07T08:55:21;97163.28;;;4.98;69.62
75146;BME280;63641;46.526;24.612;2022-12-07T08:57:49;97159.31;;;5.01;69.56
75146;BME280;63641;46.526;24.612;2022-12-07T09:00:16;97152.63;;;5.03;69.50
75146;BME280;63641;46.526;24.612;2022-12-07T09:02:44;97143.53;;;5.04;69.38
75146;BME280;63641;46.526;24.612;2022-12-07T09:05:11;97147.03;;;5.05;69.02
75146;BME280;63641;46.526;24.612;2022-12-07T09:07:44;97137.88;;;5.01;69.19
75146;BME280;63641;46.526;24.612;2022-12-07T09:10:12;97142.16;;;5.02;69.02
75146;BME280;63641;46.526;24.612;2022-12-07T09:12:39;97146.72;;;5.01;69.41
75146;BME280;63641;46.526;24.612;2022-12-07T09:15:06;97155.38;;;5.08;69.49
75146;BME280;63641;46.526;24.612;2022-12-07T09:17:35;97139.09;;;5.15;69.02
75146;BME280;63641;46.526;24.612;2022-12-07T09:20:04;97138.09;;;5.21;69.09
75146;BME280;63641;46.526;24.612;2022-12-07T09:22:32;97141.56;;;5.22;68.67
75146;BME280;63641;46.526;24.612;2022-12-07T09:24:59;97132.75;;;5.26;68.63
75146;BME280;63641;46.526;24.612;2022-12-07T09:27:28;97128.28;;;5.32;68.53
75146;BME280;63641;46.526;24.612;2022-12-07T09:29:55;97121.59;;;5.35;68.29
75146;BME280;63641;46.526;24.612;2022-12-07T09:32:22;97120.28;;;5.37;68.06
75146;BME280;63641;46.526;24.612;2022-12-07T09:34:49;97112.00;;;5.39;67.93
75146;BME280;63641;46.526;24.612;2022-12-07T09:37:16;97107.72;;;5.43;67.82
75146;BME280;63641;46.526;24.612;2022-12-07T09:39:43;97093.25;;;5.44;67.51
75146;BME280;63641;46.526;24.612;2022-12-07T09:42:36;97094.63;;;5.46;67.72
75146;BME280;63641;46.526;24.612;2022-12-07T09:45:10;97086.59;;;5.51;67.82
75146;BME280;63641;46.526;24.612;2022-12-07T09:47:38;97083.19;;;5.56;67.64
75146;BME280;63641;46.526;24.612;2022-12-07T09:50:14;97094.44;;;5.58;67.59
75146;BME280;63641;46.526;24.612;2022-12-07T09:52:44;97087.78;;;5.61;67.63
75146;BME280;63641;46.526;24.612;2022-12-07T09:55:14;97086.75;;;5.67;67.59
75146;BME280;63641;46.526;24.612;2022-12-07T09:57:42;97093.78;;;5.73;67.57
75146;BME280;63641;46.526;24.612;2022-12-07T10:00:15;97097.34;;;5.84;67.33
75146;BME280;63641;46.526;24.612;2022-12-07T10:03:00;97090.75;;;5.96;67.39
75146;BME280;63641;46.526;24.612;2022-12-07T10:05:35;97097.31;;;6.11;67.05
75146;BME280;63641;46.526;24.612;2022-12-07T10:08:03;97089.91;;;6.23;66.33
75146;BME280;63641;46.526;24.612;2022-12-07T10:10:33;97090.69;;;6.23;65.81
75146;BME280;63641;46.526;24.612;2022-12-07T10:15:44;97091.00;;;6.27;65.27
75146;BME280;63641;46.526;24.612;2022-12-07T10:18:25;97095.91;;;6.40;65.34
75146;BME280;63641;46.526;24.612;2022-12-07T10:23:29;97100.38;;;6.67;64.72
75146;BME280;63641;46.526;24.612;2022-12-07T10:25:58;97099.34;;;6.78;64.25
75146;BME280;63641;46.526;24.612;2022-12-07T10:28:34;97100.72;;;6.86;63.98
75146;BME280;63641;46.526;24.612;2022-12-07T10:31:22;97085.16;;;6.93;63.59
75146;BME280;63641;46.526;24.612;2022-12-07T10:33:58;97091.34;;;6.98;63.34
75146;BME280;63641;46.526;24.612;2022-12-07T10:36:37;97078.97;;;7.02;63.14
75146;BME280;63641;46.526;24.612;2022-12-07T10:39:15;97089.25;;;7.11;63.55
75146;BME280;63641;46.526;24.612;2022-12-07T10:42:00;97086.31;;;7.22;62.91
75146;BME280;63641;46.526;24.612;2022-12-07T10:44:32;97081.22;;;7.26;62.76
75146;BME280;63641;46.526;24.612;2022-12-07T10:47:34;97075.81;;;7.21;62.52
75146;BME280;63641;46.526;24.612;2022-12-07T10:55:33;97074.19;;;7.20;62.81
75146;BME280;63641;46.526;24.612;2022-12-07T11:03:56;97070.41;;;7.21;62.16
75146;BME280;63641;46.526;24.612;2022-12-07T11:10:18;97071.22;;;7.16;62.27
75146;BME280;63641;46.526;24.612;2022-12-07T11:12:54;97069.88;;;7.24;61.97
75146;BME280;63641;46.526;24.612;2022-12-07T11:18:11;97056.75;;;7.38;61.62
75146;BME280;63641;46.526;24.612;2022-12-07T11:20:59;97054.03;;;7.43;61.48
75146;BME280;63641;46.526;24.612;2022-12-07T11:26:55;97051.06;;;7.39;61.29
75146;BME280;63641;46.526;24.612;2022-12-07T11:29:32;97057.50;;;7.28;61.22
75146;BME280;63641;46.526;24.612;2022-12-07T11:32:22;97048.63;;;7.17;61.14
75146;BME280;63641;46.526;24.612;2022-12-07T11:38:20;97051.56;;;7.06;61.46
75146;BME280;63641;46.526;24.612;2022-12-07T11:40:58;97053.72;;;7.09;61.39
75146;BME280;63641;46.526;24.612;2022-12-07T11:44:05;97048.34;;;7.09;61.27
75146;BME280;63641;46.526;24.612;2022-12-07T11:46:58;97051.03;;;7.09;61.22
75146;BME280;63641;46.526;24.612;2022-12-07T11:50:03;97052.34;;;7.06;61.28
75146;BME280;63641;46.526;24.612;2022-12-07T11:52:26;97042.41;;;7.07;61.34
75146;BME280;63641;46.526;24.612;2022-12-07T11:54:54;97037.81;;;7.02;61.25
75146;BME280;63641;46.526;24.612;2022-12-07T11:57:30;97031.34;;;6.93;61.39
75146;BME280;63641;46.526;24.612;2022-12-07T12:00:03;97038.56;;;6.82;61.58
75146;BME280;63641;46.526;24.612;2022-12-07T12:02:43;97033.16;;;6.72;61.43
75146;BME280;63641;46.526;24.612;2022-12-07T12:05:21;97034.72;;;6.63;61.69
75146;BME280;63641;46.526;24.612;2022-12-07T12:08:26;97031.44;;;6.50;61.90
75146;BME280;63641;46.526;24.612;2022-12-07T12:22:46;97027.59;;;6.26;62.09
75146;BME280;63641;46.526;24.612;2022-12-07T12:26:13;97037.28;;;6.32;62.25
75146;BME280;63641;46.526;24.612;2022-12-07T12:28:24;97030.88;;;6.38;62.04
75146;BME280;63641;46.526;24.612;2022-12-07T12:31:16;97027.16;;;6.44;61.73
75146;BME280;63641;46.526;24.612;2022-12-07T12:34:00;97034.66;;;6.42;61.83
75146;BME280;63641;46.526;24.612;2022-12-07T12:36:44;97038.41;;;6.41;61.83
75146;BME280;63641;46.526;24.612;2022-12-07T12:39:15;97039.22;;;6.42;61.97
75146;BME280;63641;46.526;24.612;2022-12-07T12:51:51;97023.56;;;6.28;62.19
75146;BME280;63641;46.526;24.612;2022-12-07T12:59:28;97019.03;;;6.34;62.05
75146;BME280;63641;46.526;24.612;2022-12-07T13:02:16;97013.13;;;6.37;61.89
75146;BME280;63641;46.526;24.612;2022-12-07T13:15:36;97020.94;;;6.39;61.64
75146;BME280;63641;46.526;24.612;2022-12-07T13:26:22;97021.22;;;6.47;61.81
75146;BME280;63641;46.526;24.612;2022-12-07T13:32:21;97017.25;;;6.60;61.58
75146;BME280;63641;46.526;24.612;2022-12-07T13:34:49;97015.91;;;6.63;61.70
75146;BME280;63641;46.526;24.612;2022-12-07T13:37:27;97016.75;;;6.68;61.57
75146;BME280;63641;46.526;24.612;2022-12-07T13:40:18;97017.03;;;6.72;61.69
75146;BME280;63641;46.526;24.612;2022-12-07T13:43:01;97015.16;;;6.72;61.76
75146;BME280;63641;46.526;24.612;2022-12-07T13:45:30;97011.38;;;6.73;61.80
75146;BME280;63641;46.526;24.612;2022-12-07T13:48:32;97029.38;;;6.73;61.89
75146;BME280;63641;46.526;24.612;2022-12-07T13:51:02;97016.75;;;6.68;61.79
75146;BME280;63641;46.526;24.612;2022-12-07T13:53:29;97022.41;;;6.67;62.33
75146;BME280;63641;46.526;24.612;2022-12-07T13:56:00;97025.34;;;6.65;62.48
75146;BME280;63641;46.526;24.612;2022-12-07T13:58:30;97022.91;;;6.64;62.77
75146;BME280;63641;46.526;24.612;2022-12-07T14:00:58;97025.28;;;6.55;62.95
75146;BME280;63641;46.526;24.612;2022-12-07T14:03:29;97012.63;;;6.45;63.18
75146;BME280;63641;46.526;24.612;2022-12-07T14:06:14;97020.94;;;6.39;63.42
75146;BME280;63641;46.526;24.612;2022-12-07T14:08:42;97016.34;;;6.34;63.35
75146;BME280;63641;46.526;24.612;2022-12-07T14:11:18;97011.72;;;6.29;63.59
75146;BME280;63641;46.526;24.612;2022-12-07T14:13:59;97012.00;;;6.23;63.76
75146;BME280;63641;46.526;24.612;2022-12-07T14:16:35;97012.44;;;6.15;63.69
75146;BME280;63641;46.526;24.612;2022-12-07T14:19:05;97013.50;;;6.09;63.95
75146;BME280;63641;46.526;24.612;2022-12-07T14:21:33;97016.69;;;6.00;64.11
75146;BME280;63641;46.526;24.612;2022-12-07T14:24:19;97017.97;;;5.93;64.18
75146;BME280;63641;46.526;24.612;2022-12-07T14:26:48;97017.38;;;5.86;64.09
75146;BME280;63641;46.526;24.612;2022-12-07T14:31:52;97016.72;;;5.73;64.41
75146;BME280;63641;46.526;24.612;2022-12-07T14:34:22;97014.81;;;5.64;64.60
75146;BME280;63641;46.526;24.612;2022-12-07T14:36:50;97020.09;;;5.58;64.65
75146;BME280;63641;46.526;24.612;2022-12-07T14:39:17;97011.44;;;5.46;64.68
75146;BME280;63641;46.526;24.612;2022-12-07T14:41:43;97017.59;;;5.47;64.67
75146;BME280;63641;46.526;24.612;2022-12-07T14:44:22;97021.31;;;5.41;64.97
75146;BME280;63641;46.526;24.612;2022-12-07T14:46:54;97020.47;;;5.35;65.03
75146;BME280;63641;46.526;24.612;2022-12-07T14:49:43;97020.66;;;5.28;65.00
75146;BME280;63641;46.526;24.612;2022-12-07T14:52:22;97024.13;;;5.24;65.17
75146;BME280;63641;46.526;24.612;2022-12-07T14:55:22;97023.00;;;5.20;64.83
75146;BME280;63641;46.526;24.612;2022-12-07T14:57:50;97027.28;;;5.16;64.97
75146;BME280;63641;46.526;24.612;2022-12-07T15:00:18;97037.13;;;5.10;65.18
75146;BME280;63641;46.526;24.612;2022-12-07T15:02:47;97031.97;;;5.03;65.18
75146;BME280;63641;46.526;24.612;2022-12-07T15:05:14;97032.72;;;4.99;65.44
75146;BME280;63641;46.526;24.612;2022-12-07T15:07:43;97025.94;;;4.91;65.33
75146;BME280;63641;46.526;24.612;2022-12-07T15:12:49;97021.25;;;4.81;65.69
75146;BME280;63641;46.526;24.612;2022-12-07T15:15:16;97016.09;;;4.75;65.93
75146;BME280;63641;46.526;24.612;2022-12-07T15:17:43;97015.25;;;4.69;65.88
75146;BME280;63641;46.526;24.612;2022-12-07T15:20:18;97029.13;;;4.66;65.95
75146;BME280;63641;46.526;24.612;2022-12-07T15:22:45;97021.84;;;4.62;66.23
75146;BME280;63641;46.526;24.612;2022-12-07T15:25:13;97027.13;;;4.56;66.09
75146;BME280;63641;46.526;24.612;2022-12-07T15:27:41;97024.19;;;4.53;66.30
75146;BME280;63641;46.526;24.612;2022-12-07T15:30:08;97028.38;;;4.49;66.57
75146;BME280;63641;46.526;24.612;2022-12-07T15:32:35;97024.84;;;4.43;66.60